sensor_id;sensor_type;location;lat;lon;timestamp;pressure;altitude;pressure_sealevel;temperature;humidity
76940;BME280;65885;55.848;35.916;2023-07-16T00:01:59;99170.66;;;12.81;74.90
76940;BME280;65885;55.848;35.916;2023-07-16T00:04:27;99170.56;;;12.83;75.03
76940;BME280;65885;55.848;35.916;2023-07-16T00:06:55;99169.63;;;12.84;75.19
76940;BME280;65885;55.848;35.916;2023-07-16T00:09:22;99164.47;;;12.82;74.85
76940;BME280;65885;55.848;35.916;2023-07-16T00:11:50;99163.59;;;12.82;74.93
76940;BME280;65885;55.848;35.916;2023-07-16T00:14:18;99166.25;;;12.82;74.86
76940;BME280;65885;55.848;35.916;2023-07-16T00:16:46;99162.66;;;12.83;75.32
76940;BME280;65885;55.848;35.916;2023-07-16T00:19:14;99165.31;;;12.83;75.66
76940;BME280;65885;55.848;35.916;2023-07-16T00:21:42;99161.91;;;12.81;75.24
76940;BME280;65885;55.848;35.916;2023-07-16T00:24:09;99165.47;;;12.80;75.19
76940;BME280;65885;55.848;35.916;2023-07-16T00:26:37;99161.22;;;12.77;75.77
76940;BME280;65885;55.848;35.916;2023-07-16T00:29:04;99164.03;;;12.74;75.52
76940;BME280;65885;55.848;35.916;2023-07-16T00:31:32;99165.91;;;12.72;75.47
76940;BME280;65885;55.848;35.916;2023-07-16T00:34:00;99166.91;;;12.69;75.04
76940;BME280;65885;55.848;35.916;2023-07-16T00:36:28;99168.78;;;12.67;75.32
76940;BME280;65885;55.848;35.916;2023-07-16T00:38:55;99170.66;;;12.65;75.17
76940;BME280;65885;55.848;35.916;2023-07-16T00:41:22;99166.41;;;12.63;75.04
76940;BME280;65885;55.848;35.916;2023-07-16T00:43:49;99179.63;;;12.61;75.13
76940;BME280;65885;55.848;35.916;2023-07-16T00:46:17;99166.75;;;12.57;74.44
76940;BME280;65885;55.848;35.916;2023-07-16T00:48:44;99177.34;;;12.55;74.81
76940;BME280;65885;55.848;35.916;2023-07-16T00:51:13;99177.50;;;12.52;75.43
76940;BME280;65885;55.848;35.916;2023-07-16T00:53:41;99171.47;;;12.50;75.07
76940;BME280;65885;55.848;35.916;2023-07-16T00:56:10;99172.50;;;12.47;74.92
76940;BME280;65885;55.848;35.916;2023-07-16T00:58:37;99174.28;;;12.47;75.18
76940;BME280;65885;55.848;35.916;2023-07-16T01:01:04;99173.41;;;12.46;75.50
76940;BME280;65885;55.848;35.916;2023-07-16T01:03:31;99175.28;;;12.44;74.96
76940;BME280;65885;55.848;35.916;2023-07-16T01:06:04;99177.91;;;12.44;74.93
76940;BME280;65885;55.848;35.916;2023-07-16T01:08:49;99178.00;;;12.43;75.33
76940;BME280;65885;55.848;35.916;2023-07-16T01:11:21;99180.72;;;12.41;75.12
76940;BME280;65885;55.848;35.916;2023-07-16T01:13:49;99182.50;;;12.41;74.77
76940;BME280;65885;55.848;35.916;2023-07-16T01:16:21;99183.50;;;12.38;74.95
76940;BME280;65885;55.848;35.916;2023-07-16T01:18:48;99194.84;;;12.39;74.60
76940;BME280;65885;55.848;35.916;2023-07-16T01:21:16;99185.28;;;12.38;74.33
76940;BME280;65885;55.848;35.916;2023-07-16T01:24:19;99184.34;;;12.39;74.69
76940;BME280;65885;55.848;35.916;2023-07-16T01:27:09;99196.59;;;12.40;75.28
76940;BME280;65885;55.848;35.916;2023-07-16T01:29:45;99190.38;;;12.41;75.24
76940;BME280;65885;55.848;35.916;2023-07-16T01:32:17;99199.97;;;12.42;75.12
76940;BME280;65885;55.848;35.916;2023-07-16T01:34:44;99206.94;;;12.43;75.06
76940;BME280;65885;55.848;35.916;2023-07-16T01:37:12;99201.66;;;12.43;74.70
76940;BME280;65885;55.848;35.916;2023-07-16T01:39:40;99202.50;;;12.43;74.76
76940;BME280;65885;55.848;35.916;2023-07-16T01:42:07;99194.53;;;12.45;75.24
76940;BME280;65885;55.848;35.916;2023-07-16T01:44:34;99197.97;;;12.47;75.25
76940;BME280;65885;55.848;35.916;2023-07-16T01:47:09;99194.38;;;12.48;75.32
76940;BME280;65885;55.848;35.916;2023-07-16T01:49:37;99203.13;;;12.48;75.01
76940;BME280;65885;55.848;35.916;2023-07-16T01:52:06;99192.53;;;12.50;74.99
76940;BME280;65885;55.848;35.916;2023-07-16T01:54:33;99203.81;;;12.52;75.38
76940;BME280;65885;55.848;35.916;2023-07-16T01:57:01;99197.53;;;12.55;75.64
76940;BME280;65885;55.848;35.916;2023-07-16T01:59:28;99201.78;;;12.57;75.70
76940;BME280;65885;55.848;35.916;2023-07-16T02:01:56;99198.97;;;12.60;76.09
76940;BME280;65885;55.848;35.916;2023-07-16T02:04:24;99201.53;;;12.62;75.72
76940;BME280;65885;55.848;35.916;2023-07-16T02:06:51;99203.06;;;12.66;75.99
76940;BME280;65885;55.848;35.916;2023-07-16T02:09:19;99204.69;;;12.68;76.10
76940;BME280;65885;55.848;35.916;2023-07-16T02:11:46;99197.56;;;12.70;75.72
76940;BME280;65885;55.848;35.916;2023-07-16T02:14:13;99203.59;;;12.72;75.52
76940;BME280;65885;55.848;35.916;2023-07-16T02:16:41;99214.88;;;12.74;75.46
76940;BME280;65885;55.848;35.916;2023-07-16T02:19:08;99206.91;;;12.76;75.45
76940;BME280;65885;55.848;35.916;2023-07-16T02:21:39;99205.91;;;12.78;75.40
76940;BME280;65885;55.848;35.916;2023-07-16T02:24:07;99214.56;;;12.81;75.66
76940;BME280;65885;55.848;35.916;2023-07-16T02:26:34;99208.25;;;12.83;75.78
76940;BME280;65885;55.848;35.916;2023-07-16T02:29:01;99213.47;;;12.85;76.01
76940;BME280;65885;55.848;35.916;2023-07-16T02:31:28;99208.97;;;12.87;75.85
76940;BME280;65885;55.848;35.916;2023-07-16T02:33:56;99213.09;;;12.91;76.02
76940;BME280;65885;55.848;35.916;2023-07-16T02:36:23;99206.84;;;12.93;76.35
76940;BME280;65885;55.848;35.916;2023-07-16T02:38:52;99220.66;;;12.97;76.36
76940;BME280;65885;55.848;35.916;2023-07-16T02:41:19;99213.47;;;13.00;76.51
76940;BME280;65885;55.848;35.916;2023-07-16T02:43:46;99215.69;;;13.08;76.50
76940;BME280;65885;55.848;35.916;2023-07-16T02:46:14;99219.28;;;13.23;77.21
76940;BME280;65885;55.848;35.916;2023-07-16T02:48:41;99208.53;;;13.42;77.38
76940;BME280;65885;55.848;35.916;2023-07-16T02:51:08;99208.16;;;13.64;77.19
76940;BME280;65885;55.848;35.916;2023-07-16T02:53:36;99220.34;;;13.80;76.51
76940;BME280;65885;55.848;35.916;2023-07-16T02:56:04;99221.53;;;13.91;76.29
76940;BME280;65885;55.848;35.916;2023-07-16T02:58:32;99221.09;;;13.98;75.55
76940;BME280;65885;55.848;35.916;2023-07-16T03:00:59;99220.81;;;14.03;75.15
76940;BME280;65885;55.848;35.916;2023-07-16T03:03:26;99221.53;;;14.05;75.24
76940;BME280;65885;55.848;35.916;2023-07-16T03:05:54;99224.88;;;14.08;75.14
76940;BME280;65885;55.848;35.916;2023-07-16T03:08:21;99224.78;;;14.10;75.12
76940;BME280;65885;55.848;35.916;2023-07-16T03:10:48;99226.38;;;14.12;75.38
76940;BME280;65885;55.848;35.916;2023-07-16T03:13:17;99228.84;;;14.15;75.18
76940;BME280;65885;55.848;35.916;2023-07-16T03:15:45;99220.63;;;14.20;75.39
76940;BME280;65885;55.848;35.916;2023-07-16T03:18:12;99226.59;;;14.24;75.32
76940;BME280;65885;55.848;35.916;2023-07-16T03:20:40;99223.59;;;14.30;75.16
76940;BME280;65885;55.848;35.916;2023-07-16T03:23:07;99219.81;;;14.34;75.23
76940;BME280;65885;55.848;35.916;2023-07-16T03:25:34;99218.59;;;14.39;75.18
76940;BME280;65885;55.848;35.916;2023-07-16T03:28:02;99234.94;;;14.46;75.67
76940;BME280;65885;55.848;35.916;2023-07-16T03:30:31;99231.09;;;14.52;75.54
76940;BME280;65885;55.848;35.916;2023-07-16T03:32:59;99230.78;;;14.56;75.92
76940;BME280;65885;55.848;35.916;2023-07-16T03:35:26;99230.31;;;14.64;76.09
76940;BME280;65885;55.848;35.916;2023-07-16T03:37:53;99227.31;;;14.70;75.96
76940;BME280;65885;55.848;35.916;2023-07-16T03:40:24;99230.31;;;14.78;76.15
76940;BME280;65885;55.848;35.916;2023-07-16T03:42:51;99232.59;;;14.84;76.14
76940;BME280;65885;55.848;35.916;2023-07-16T03:45:19;99240.88;;;14.92;76.16
76940;BME280;65885;55.848;35.916;2023-07-16T03:47:48;99237.84;;;14.98;76.20
76940;BME280;65885;55.848;35.916;2023-07-16T03:50:15;99231.25;;;15.06;76.49
76940;BME280;65885;55.848;35.916;2023-07-16T03:52:43;99240.38;;;15.14;76.56
76940;BME280;65885;55.848;35.916;2023-07-16T03:55:10;99232.81;;;15.22;76.46
76940;BME280;65885;55.848;35.916;2023-07-16T03:57:38;99238.44;;;15.31;76.39
76940;BME280;65885;55.848;35.916;2023-07-16T04:00:06;99243.13;;;15.40;76.23
76940;BME280;65885;55.848;35.916;2023-07-16T04:02:35;99241.69;;;15.48;76.13
76940;BME280;65885;55.848;35.916;2023-07-16T04:05:05;99243.84;;;15.56;76.30
76940;BME280;65885;55.848;35.916;2023-07-16T04:07:33;99246.88;;;15.64;76.16
76940;BME280;65885;55.848;35.916;2023-07-16T04:10:00;99241.84;;;15.87;76.65
76940;BME280;65885;55.848;35.916;2023-07-16T04:12:28;99246.19;;;16.40;77.24
76940;BME280;65885;55.848;35.916;2023-07-16T04:14:58;99241.91;;;17.14;76.60
76940;BME280;65885;55.848;35.916;2023-07-16T04:17:25;99246.84;;;17.92;75.02
76940;BME280;65885;55.848;35.916;2023-07-16T04:19:52;99246.19;;;18.70;73.30
76940;BME280;65885;55.848;35.916;2023-07-16T04:22:22;99249.03;;;19.45;71.19
76940;BME280;65885;55.848;35.916;2023-07-16T04:24:49;99246.16;;;20.12;69.31
76940;BME280;65885;55.848;35.916;2023-07-16T04:27:16;99263.81;;;20.76;67.84
76940;BME280;65885;55.848;35.916;2023-07-16T04:29:44;99254.19;;;21.25;66.17
76940;BME280;65885;55.848;35.916;2023-07-16T04:32:11;99263.56;;;21.59;64.01
76940;BME280;65885;55.848;35.916;2023-07-16T04:34:38;99272.06;;;21.94;63.62
76940;BME280;65885;55.848;35.916;2023-07-16T04:37:06;99262.09;;;22.25;62.73
76940;BME280;65885;55.848;35.916;2023-07-16T04:39:34;99271.19;;;22.61;62.22
76940;BME280;65885;55.848;35.916;2023-07-16T04:42:02;99276.75;;;22.87;60.37
76940;BME280;65885;55.848;35.916;2023-07-16T04:44:29;99268.31;;;23.19;60.54
76940;BME280;65885;55.848;35.916;2023-07-16T04:46:56;99274.91;;;23.52;59.25
76940;BME280;65885;55.848;35.916;2023-07-16T04:49:23;99268.00;;;23.95;59.11
76940;BME280;65885;55.848;35.916;2023-07-16T04:51:51;99275.88;;;24.32;58.73
76940;BME280;65885;55.848;35.916;2023-07-16T04:54:18;99275.63;;;24.61;57.99
76940;BME280;65885;55.848;35.916;2023-07-16T04:56:47;99279.81;;;24.89;57.88
76940;BME280;65885;55.848;35.916;2023-07-16T04:59:14;99275.66;;;25.21;57.03
76940;BME280;65885;55.848;35.916;2023-07-16T05:01:41;99268.72;;;25.53;56.11
76940;BME280;65885;55.848;35.916;2023-07-16T05:04:08;99269.69;;;25.86;56.02
76940;BME280;65885;55.848;35.916;2023-07-16T05:06:36;99267.84;;;26.19;55.43
76940;BME280;65885;55.848;35.916;2023-07-16T05:09:03;99268.69;;;26.52;54.92
76940;BME280;65885;55.848;35.916;2023-07-16T05:11:30;99266.63;;;26.87;54.34
76940;BME280;65885;55.848;35.916;2023-07-16T05:14:00;99267.91;;;27.15;54.32
76940;BME280;65885;55.848;35.916;2023-07-16T05:16:27;99259.63;;;27.25;52.87
76940;BME280;65885;55.848;35.916;2023-07-16T05:18:54;99264.72;;;27.12;52.54
76940;BME280;65885;55.848;35.916;2023-07-16T05:21:22;99262.59;;;26.74;51.22
76940;BME280;65885;55.848;35.916;2023-07-16T05:23:49;99274.59;;;26.23;51.75
76940;BME280;65885;55.848;35.916;2023-07-16T05:26:17;99263.38;;;25.69;52.75
76940;BME280;65885;55.848;35.916;2023-07-16T05:28:44;99268.22;;;25.15;52.86
76940;BME280;65885;55.848;35.916;2023-07-16T05:31:13;99274.44;;;24.63;53.98
76940;BME280;65885;55.848;35.916;2023-07-16T05:33:40;99278.66;;;24.22;55.09
76940;BME280;65885;55.848;35.916;2023-07-16T05:36:08;99269.81;;;23.59;53.46
76940;BME280;65885;55.848;35.916;2023-07-16T05:38:35;99266.63;;;23.18;54.88
76940;BME280;65885;55.848;35.916;2023-07-16T05:41:03;99267.16;;;22.94;55.77
76940;BME280;65885;55.848;35.916;2023-07-16T05:43:31;99270.56;;;22.77;57.42
76940;BME280;65885;55.848;35.916;2023-07-16T05:45:58;99268.88;;;22.66;59.23
76940;BME280;65885;55.848;35.916;2023-07-16T05:48:27;99257.38;;;22.56;59.44
76940;BME280;65885;55.848;35.916;2023-07-16T05:50:54;99269.94;;;22.46;59.50
76940;BME280;65885;55.848;35.916;2023-07-16T05:53:21;99272.88;;;22.42;60.49
76940;BME280;65885;55.848;35.916;2023-07-16T05:55:49;99270.38;;;22.41;61.06
76940;BME280;65885;55.848;35.916;2023-07-16T05:58:17;99274.72;;;22.42;61.27
76940;BME280;65885;55.848;35.916;2023-07-16T06:00:44;99270.22;;;22.42;60.71
76940;BME280;65885;55.848;35.916;2023-07-16T06:03:12;99268.94;;;22.47;61.58
76940;BME280;65885;55.848;35.916;2023-07-16T06:05:44;99263.88;;;22.53;61.30
76940;BME280;65885;55.848;35.916;2023-07-16T06:08:11;99261.72;;;22.66;62.04
76940;BME280;65885;55.848;35.916;2023-07-16T06:10:38;99261.81;;;22.84;62.84
76940;BME280;65885;55.848;35.916;2023-07-16T06:13:05;99267.41;;;23.01;61.29
76940;BME280;65885;55.848;35.916;2023-07-16T06:15:33;99271.81;;;23.29;62.13
76940;BME280;65885;55.848;35.916;2023-07-16T06:18:00;99263.19;;;23.53;60.63
76940;BME280;65885;55.848;35.916;2023-07-16T06:20:27;99265.31;;;23.77;60.75
76940;BME280;65885;55.848;35.916;2023-07-16T06:22:56;99275.34;;;23.93;59.55
76940;BME280;65885;55.848;35.916;2023-07-16T06:25:23;99278.50;;;24.06;59.04
76940;BME280;65885;55.848;35.916;2023-07-16T06:27:51;99272.28;;;24.23;59.36
76940;BME280;65885;55.848;35.916;2023-07-16T06:30:18;99283.53;;;24.45;59.64
76940;BME280;65885;55.848;35.916;2023-07-16T06:32:45;99281.34;;;24.66;60.08
76940;BME280;65885;55.848;35.916;2023-07-16T06:35:13;99279.66;;;24.91;59.84
76940;BME280;65885;55.848;35.916;2023-07-16T06:37:40;99288.28;;;25.03;57.33
76940;BME280;65885;55.848;35.916;2023-07-16T06:40:10;99277.16;;;25.24;57.04
76940;BME280;65885;55.848;35.916;2023-07-16T06:42:38;99276.91;;;25.43;57.87
76940;BME280;65885;55.848;35.916;2023-07-16T06:45:07;99285.34;;;25.48;54.93
76940;BME280;65885;55.848;35.916;2023-07-16T06:47:34;99283.47;;;25.40;52.87
76940;BME280;65885;55.848;35.916;2023-07-16T06:50:02;99290.78;;;25.30;52.21
76940;BME280;65885;55.848;35.916;2023-07-16T06:52:29;99288.91;;;25.23;52.34
76940;BME280;65885;55.848;35.916;2023-07-16T06:54:57;99288.88;;;25.14;52.54
76940;BME280;65885;55.848;35.916;2023-07-16T06:57:26;99287.91;;;24.98;51.87
76940;BME280;65885;55.848;35.916;2023-07-16T06:59:54;99287.03;;;24.89;52.08
76940;BME280;65885;55.848;35.916;2023-07-16T07:02:21;99276.69;;;24.94;52.15
76940;BME280;65885;55.848;35.916;2023-07-16T07:04:48;99286.34;;;25.13;53.46
76940;BME280;65885;55.848;35.916;2023-07-16T07:07:15;99287.16;;;25.39;54.01
76940;BME280;65885;55.848;35.916;2023-07-16T07:09:42;99279.81;;;25.58;53.94
76940;BME280;65885;55.848;35.916;2023-07-16T07:12:10;99283.00;;;25.61;52.60
76940;BME280;65885;55.848;35.916;2023-07-16T07:14:39;99288.03;;;25.48;51.62
76940;BME280;65885;55.848;35.916;2023-07-16T07:17:06;99287.47;;;25.36;51.64
76940;BME280;65885;55.848;35.916;2023-07-16T07:19:34;99287.59;;;25.27;52.80
76940;BME280;65885;55.848;35.916;2023-07-16T07:22:01;99291.22;;;25.09;52.80
76940;BME280;65885;55.848;35.916;2023-07-16T07:24:29;99289.72;;;24.89;53.09
76940;BME280;65885;55.848;35.916;2023-07-16T07:26:56;99294.44;;;24.69;53.11
76940;BME280;65885;55.848;35.916;2023-07-16T07:29:23;99292.97;;;24.49;53.32
76940;BME280;65885;55.848;35.916;2023-07-16T07:31:53;99294.53;;;24.33;53.66
76940;BME280;65885;55.848;35.916;2023-07-16T07:34:20;99290.22;;;24.23;54.59
76940;BME280;65885;55.848;35.916;2023-07-16T07:36:48;99296.19;;;24.17;54.07
76940;BME280;65885;55.848;35.916;2023-07-16T07:39:15;99302.16;;;24.11;54.03
76940;BME280;65885;55.848;35.916;2023-07-16T07:41:42;99293.41;;;24.08;53.94
76940;BME280;65885;55.848;35.916;2023-07-16T07:44:09;99296.94;;;24.09;54.51
76940;BME280;65885;55.848;35.916;2023-07-16T07:46:37;99287.91;;;24.10;54.00
76940;BME280;65885;55.848;35.916;2023-07-16T07:49:06;99285.63;;;24.15;53.07
76940;BME280;65885;55.848;35.916;2023-07-16T07:51:33;99298.00;;;24.16;53.08
76940;BME280;65885;55.848;35.916;2023-07-16T07:54:00;99295.72;;;24.21;52.82
76940;BME280;65885;55.848;35.916;2023-07-16T07:56:27;99292.28;;;24.29;53.88
76940;BME280;65885;55.848;35.916;2023-07-16T07:58:56;99289.22;;;24.42;54.47
76940;BME280;65885;55.848;35.916;2023-07-16T08:01:23;99297.34;;;24.50;54.72
76940;BME280;65885;55.848;35.916;2023-07-16T08:03:50;99289.19;;;24.59;54.25
76940;BME280;65885;55.848;35.916;2023-07-16T08:06:19;99287.63;;;24.75;54.87
76940;BME280;65885;55.848;35.916;2023-07-16T08:08:46;99291.91;;;24.94;55.68
76940;BME280;65885;55.848;35.916;2023-07-16T08:11:14;99287.03;;;25.15;55.97
76940;BME280;65885;55.848;35.916;2023-07-16T08:13:41;99285.28;;;25.32;55.38
76940;BME280;65885;55.848;35.916;2023-07-16T08:16:08;99281.63;;;25.41;53.69
76940;BME280;65885;55.848;35.916;2023-07-16T08:18:36;99280.06;;;25.38;51.74
76940;BME280;65885;55.848;35.916;2023-07-16T08:21:04;99280.06;;;25.38;51.76
76940;BME280;65885;55.848;35.916;2023-07-16T08:23:33;99275.03;;;25.35;51.81
76940;BME280;65885;55.848;35.916;2023-07-16T08:26:01;99274.38;;;25.33;51.40
76940;BME280;65885;55.848;35.916;2023-07-16T08:28:28;99284.25;;;25.25;51.35
76940;BME280;65885;55.848;35.916;2023-07-16T08:30:55;99279.19;;;25.22;51.39
76940;BME280;65885;55.848;35.916;2023-07-16T08:33:23;99274.16;;;25.27;52.14
76940;BME280;65885;55.848;35.916;2023-07-16T08:35:50;99273.03;;;25.37;53.27
76940;BME280;65885;55.848;35.916;2023-07-16T08:38:17;99278.28;;;25.47;53.10
76940;BME280;65885;55.848;35.916;2023-07-16T08:40:47;99276.13;;;25.59;52.60
76940;BME280;65885;55.848;35.916;2023-07-16T08:43:16;99279.03;;;25.73;51.20
76940;BME280;65885;55.848;35.916;2023-07-16T08:45:44;99272.03;;;25.89;51.09
76940;BME280;65885;55.848;35.916;2023-07-16T08:48:12;99266.47;;;26.07;51.00
76940;BME280;65885;55.848;35.916;2023-07-16T08:50:40;99268.84;;;26.34;51.62
76940;BME280;65885;55.848;35.916;2023-07-16T08:53:08;99273.25;;;26.68;51.61
76940;BME280;65885;55.848;35.916;2023-07-16T08:55:36;99267.41;;;27.03;50.64
76940;BME280;65885;55.848;35.916;2023-07-16T08:58:06;99265.34;;;27.30;48.28
76940;BME280;65885;55.848;35.916;2023-07-16T09:00:34;99262.63;;;27.69;47.48
76940;BME280;65885;55.848;35.916;2023-07-16T09:03:01;99254.56;;;27.92;45.49
76940;BME280;65885;55.848;35.916;2023-07-16T09:05:29;99260.03;;;28.30;47.20
76940;BME280;65885;55.848;35.916;2023-07-16T09:07:56;99267.38;;;28.73;48.00
76940;BME280;65885;55.848;35.916;2023-07-16T09:10:24;99266.59;;;29.02;47.50
76940;BME280;65885;55.848;35.916;2023-07-16T09:12:51;99266.84;;;29.22;46.48
76940;BME280;65885;55.848;35.916;2023-07-16T09:15:20;99265.72;;;29.32;44.71
76940;BME280;65885;55.848;35.916;2023-07-16T09:17:47;99263.84;;;29.32;44.77
76940;BME280;65885;55.848;35.916;2023-07-16T09:20:15;99252.75;;;29.42;45.51
76940;BME280;65885;55.848;35.916;2023-07-16T09:22:43;99259.44;;;29.46;45.92
76940;BME280;65885;55.848;35.916;2023-07-16T09:25:12;99261.13;;;29.62;45.17
76940;BME280;65885;55.848;35.916;2023-07-16T09:27:39;99256.31;;;29.57;42.27
76940;BME280;65885;55.848;35.916;2023-07-16T09:30:14;99258.38;;;29.55;42.61
76940;BME280;65885;55.848;35.916;2023-07-16T09:32:43;99267.41;;;29.33;41.51
76940;BME280;65885;55.848;35.916;2023-07-16T09:35:12;99270.19;;;29.24;41.98
76940;BME280;65885;55.848;35.916;2023-07-16T09:37:39;99269.66;;;28.99;41.73
76940;BME280;65885;55.848;35.916;2023-07-16T09:40:08;99266.91;;;28.70;41.22
76940;BME280;65885;55.848;35.916;2023-07-16T09:42:37;99274.03;;;28.48;42.68
76940;BME280;65885;55.848;35.916;2023-07-16T09:45:06;99258.63;;;28.34;44.00
76940;BME280;65885;55.848;35.916;2023-07-16T09:47:34;99256.78;;;28.34;45.20
76940;BME280;65885;55.848;35.916;2023-07-16T09:50:03;99262.97;;;28.43;45.67
76940;BME280;65885;55.848;35.916;2023-07-16T09:52:32;99263.63;;;28.60;45.42
76940;BME280;65885;55.848;35.916;2023-07-16T09:55:02;99263.84;;;28.73;44.23
76940;BME280;65885;55.848;35.916;2023-07-16T09:57:35;99267.09;;;28.83;43.82
76940;BME280;65885;55.848;35.916;2023-07-16T10:00:05;99267.84;;;28.77;42.62
76940;BME280;65885;55.848;35.916;2023-07-16T10:02:34;99270.72;;;28.75;43.07
76940;BME280;65885;55.848;35.916;2023-07-16T10:05:13;99269.25;;;28.73;43.36
76940;BME280;65885;55.848;35.916;2023-07-16T10:07:40;99266.41;;;28.52;41.84
76940;BME280;65885;55.848;35.916;2023-07-16T10:10:09;99264.69;;;28.13;41.52
76940;BME280;65885;55.848;35.916;2023-07-16T10:12:37;99263.84;;;27.89;43.02
76940;BME280;65885;55.848;35.916;2023-07-16T10:15:05;99263.59;;;27.76;43.58
76940;BME280;65885;55.848;35.916;2023-07-16T10:17:33;99260.25;;;27.74;44.14
76940;BME280;65885;55.848;35.916;2023-07-16T10:20:01;99255.84;;;27.73;43.79
76940;BME280;65885;55.848;35.916;2023-07-16T10:22:38;99245.38;;;27.78;44.73
76940;BME280;65885;55.848;35.916;2023-07-16T10:25:09;99239.16;;;28.01;45.43
76940;BME280;65885;55.848;35.916;2023-07-16T10:27:37;99243.69;;;28.23;45.28
76940;BME280;65885;55.848;35.916;2023-07-16T10:30:05;99252.28;;;28.50;45.25
76940;BME280;65885;55.848;35.916;2023-07-16T10:32:33;99245.59;;;28.75;45.42
76940;BME280;65885;55.848;35.916;2023-07-16T10:35:01;99254.72;;;28.89;44.33
76940;BME280;65885;55.848;35.916;2023-07-16T10:37:29;99259.31;;;29.03;44.10
76940;BME280;65885;55.848;35.916;2023-07-16T10:39:59;99253.16;;;29.09;42.70
76940;BME280;65885;55.848;35.916;2023-07-16T10:42:27;99259.31;;;29.03;41.79
76940;BME280;65885;55.848;35.916;2023-07-16T10:44:57;99266.25;;;28.83;40.54
76940;BME280;65885;55.848;35.916;2023-07-16T10:47:30;99262.59;;;28.61;40.51
76940;BME280;65885;55.848;35.916;2023-07-16T10:49:57;99262.75;;;28.44;41.17
76940;BME280;65885;55.848;35.916;2023-07-16T10:52:26;99268.25;;;28.36;41.93
76940;BME280;65885;55.848;35.916;2023-07-16T10:54:53;99261.63;;;28.39;42.26
76940;BME280;65885;55.848;35.916;2023-07-16T10:57:25;99263.78;;;28.20;41.63
76940;BME280;65885;55.848;35.916;2023-07-16T10:59:53;99270.56;;;28.16;42.24
76940;BME280;65885;55.848;35.916;2023-07-16T11:02:22;99271.75;;;28.14;41.68
76940;BME280;65885;55.848;35.916;2023-07-16T11:04:50;99273.31;;;28.08;42.47
76940;BME280;65885;55.848;35.916;2023-07-16T11:07:20;99263.56;;;28.07;43.27
76940;BME280;65885;55.848;35.916;2023-07-16T11:09:48;99269.25;;;28.12;44.02
76940;BME280;65885;55.848;35.916;2023-07-16T11:12:17;99255.31;;;28.24;43.78
76940;BME280;65885;55.848;35.916;2023-07-16T11:14:48;99265.72;;;28.35;43.17
76940;BME280;65885;55.848;35.916;2023-07-16T11:17:15;99261.94;;;28.44;42.85
76940;BME280;65885;55.848;35.916;2023-07-16T11:19:45;99253.25;;;28.48;42.70
76940;BME280;65885;55.848;35.916;2023-07-16T11:22:13;99265.69;;;28.58;43.71
76940;BME280;65885;55.848;35.916;2023-07-16T11:24:42;99265.13;;;28.62;43.22
76940;BME280;65885;55.848;35.916;2023-07-16T11:27:13;99261.78;;;28.60;41.56
76940;BME280;65885;55.848;35.916;2023-07-16T11:29:46;99262.22;;;28.49;42.10
76940;BME280;65885;55.848;35.916;2023-07-16T11:32:21;99258.94;;;28.39;41.55
76940;BME280;65885;55.848;35.916;2023-07-16T11:34:53;99267.44;;;28.28;42.56
76940;BME280;65885;55.848;35.916;2023-07-16T11:37:21;99260.72;;;28.24;43.00
76940;BME280;65885;55.848;35.916;2023-07-16T11:39:48;99262.13;;;28.19;42.26
76940;BME280;65885;55.848;35.916;2023-07-16T11:42:22;99262.19;;;28.11;42.77
76940;BME280;65885;55.848;35.916;2023-07-16T11:44:52;99265.03;;;28.10;43.00
76940;BME280;65885;55.848;35.916;2023-07-16T11:47:20;99264.56;;;28.06;42.99
76940;BME280;65885;55.848;35.916;2023-07-16T11:49:48;99265.03;;;28.10;43.81
76940;BME280;65885;55.848;35.916;2023-07-16T11:52:19;99267.09;;;28.08;42.06
76940;BME280;65885;55.848;35.916;2023-07-16T11:54:46;99269.78;;;28.08;42.26
76940;BME280;65885;55.848;35.916;2023-07-16T11:57:13;99273.31;;;28.08;43.19
76940;BME280;65885;55.848;35.916;2023-07-16T11:59:41;99279.41;;;28.02;42.56
76940;BME280;65885;55.848;35.916;2023-07-16T12:02:10;99273.75;;;27.97;43.12
76940;BME280;65885;55.848;35.916;2023-07-16T12:04:37;99279.66;;;27.92;43.92
76940;BME280;65885;55.848;35.916;2023-07-16T12:07:04;99270.22;;;27.97;44.13
76940;BME280;65885;55.848;35.916;2023-07-16T12:09:32;99264.38;;;28.08;44.63
76940;BME280;65885;55.848;35.916;2023-07-16T12:11:59;99264.44;;;28.23;43.89
76940;BME280;65885;55.848;35.916;2023-07-16T12:14:27;99265.34;;;28.38;44.17
76940;BME280;65885;55.848;35.916;2023-07-16T12:16:55;99280.38;;;28.55;43.61
76940;BME280;65885;55.848;35.916;2023-07-16T12:19:24;99273.13;;;28.70;41.95
76940;BME280;65885;55.848;35.916;2023-07-16T12:21:52;99264.94;;;28.79;40.85
76940;BME280;65885;55.848;35.916;2023-07-16T12:24:19;99268.78;;;28.84;41.42
76940;BME280;65885;55.848;35.916;2023-07-16T12:26:46;99272.59;;;28.90;41.54
76940;BME280;65885;55.848;35.916;2023-07-16T12:29:14;99268.81;;;28.99;41.83
76940;BME280;65885;55.848;35.916;2023-07-16T12:31:41;99260.41;;;29.09;41.89
76940;BME280;65885;55.848;35.916;2023-07-16T12:34:08;99264.72;;;29.18;41.55
76940;BME280;65885;55.848;35.916;2023-07-16T12:36:38;99275.97;;;29.21;41.19
76940;BME280;65885;55.848;35.916;2023-07-16T12:39:05;99267.50;;;29.24;41.04
76940;BME280;65885;55.848;35.916;2023-07-16T12:41:33;99265.81;;;29.23;41.51
76940;BME280;65885;55.848;35.916;2023-07-16T12:44:00;99270.19;;;29.24;41.86
76940;BME280;65885;55.848;35.916;2023-07-16T12:46:27;99270.66;;;29.28;41.77
76940;BME280;65885;55.848;35.916;2023-07-16T12:48:55;99268.88;;;29.35;41.55
76940;BME280;65885;55.848;35.916;2023-07-16T12:51:22;99266.47;;;29.40;41.05
76940;BME280;65885;55.848;35.916;2023-07-16T12:53:51;99270.84;;;29.41;39.95
76940;BME280;65885;55.848;35.916;2023-07-16T12:56:18;99268.41;;;29.32;39.03